Aviation Digital Data Service (ADDS)

Output produced by METARs form (0642 UTC 17 April 2014)
found at http://aviationweather.gov/adds/metars/
 
KBDR 170532Z 1706/1806 02008KT P6SM FEW250 
     FM171200 06012KT P6SM FEW040 SCT250 
     FM171800 09018KT P6SM FEW040 SCT250 
     FM180200 06012KT P6SM FEW040 BKN250